Trails of Hope

Overall Finish List

February 25, 2017


Pro-Fit Event Services LLC

Trail 5K

Place Name City Bib No Age Gender Age Group Total Time Pace
1 Merrick Calabaza San Felipe Pueblo 215 20 M 1 Top Fin 20:23.9 6:35/M
2 Shawn Griffin Killeen 166 43 M 1 40-44 20:28.2 6:36/M
3 Jonathan Castillo Harker Heights 177 35 M 1 35-39 20:46.7 6:42/M
4 Chad Weaver Harker Heights TX 167 36 M 2 35-39 20:48.4 6:43/M
5 Paxton Lyons Belton 187 14 M 1 12-15 21:07.0 6:49/M
6 Turtle Powell Kempner 216 14 M 2 12-15 24:40.5 7:57/M
7 Brandt Menzie Belton TX 238 14 M 3 12-15 24:45.2 7:59/M
8 David Bradley Hico 129 61 M 1 60-64 24:47.4 8:00/M
9 Christopher Nixon Belton 211 33 M 1 30-34 24:55.9 8:02/M
10 John Thies Temple 108 17 M 1 16-19 25:02.4 8:05/M
11 Steve Walden Killeen 210 47 M 1 45-49 25:15.1 8:09/M
12 Chad Hammonds Belton TX 577 38 M 3 35-39 27:19.4 8:49/M
13 Joseph Sparks Belton 116 35 M 4 35-39 28:35.7 9:13/M
14 Daniel Torres Rivera Belton TX 237 14 M 4 12-15 30:13.8 9:45/M
15 Dillon Demay Belton 139 8 M 1 1-11 30:25.1 9:49/M
16 Jordan Demay Belton 138 31 M 2 30-34 30:25.3 9:49/M
17 Riley Rhodes Temple 189 9 M 2 1-11 30:37.9 9:53/M
18 Rob Sanders Woodway TX 231 64 M 2 60-64 30:51.8 9:57/M
19 William McCollum Temple 203 41 M 2 40-44 30:54.0 9:58/M
20 Stuart Lindland Fort Hood TX 234 46 M 2 45-49 30:58.1 9:59/M
21 Kayla Rivera Copperas Cove 113 25 F 1 Top Fin 31:00.0 10:00/M
22 Kelly Rhodes Temple 188 36 F 1 35-39 31:01.4 10:00/M
23 Lisa Griffin Killeen 165 41 F 1 40-44 31:04.3 10:01/M
24 Saucedo Raymond Bryan TX 246 46 M 3 45-49 31:04.4 10:01/M
25 Khristan Hammonds Belton TX 233 39 F 2 35-39 31:07.7 10:02/M
26 Christina Kim Temple 198 25 F 1 25-29 31:10.9 10:03/M
27 Caroline Moehlenbrock Nolanville 192 13 F 1 12-15 31:14.2 10:05/M
28 Kellly Kunders Sabine Pass TX 229 39 F 3 35-39 31:14.8 10:05/M
29 Jeff Heckathorn Harker Heights 102 54 M 1 50-54 31:28.6 10:09/M
30 Kinele Webber Belton TX 250 27 M 1 25-29 32:19.9 10:25/M
31 Jordan Holmes Killeen 122 15 M 5 12-15 33:17.7 10:44/M
32 Isaac Rickel Hico 128 42 M 3 40-44 33:25.0 10:47/M
33 David Wilson Killeen 199 33 M 3 30-34 33:42.8 10:52/M
34 John Richter Belton TX 249 31 M 4 30-34 33:48.4 10:54/M
35 Angie Wilson Harker Heights 562 62 F 1 60-64 33:53.6 10:56/M
36 Neal White Salado 204 61 M 3 60-64 33:59.4 10:58/M
37 Brian Trumpower Killeen 151 37 M 5 35-39 34:08.2 11:01/M
38 Joel Secrist Jr. Harker Heights 218 10 M 3 1-11 34:09.1 11:01/M
39 Lonnie Ellis Copperas Cove 178 49 F 1 45-49 36:41.5 11:50/M
40 Rebecca Milligan Temple TX 248 45 F 2 45-49 36:48.4 11:52/M
41 Renee Stoughton Nolanville 133 36 F 4 35-39 36:56.6 11:55/M
42 Clarence Sudler Harker Heights 190 64 M 4 60-64 37:01.8 11:56/M
43 Tom Davis Belton 114 57 M 1 55-59 37:02.0 11:57/M
44 Maricela Hernandez Killeen 191 31 F 1 30-34 37:10.5 11:59/M
45 Barb Lewis Killeen 194 37 F 5 35-39 37:11.9 12:00/M
46 Joel Secrist Harker Heights 219 45 M 4 45-49 37:17.7 12:02/M
47 Michael Fuller Temple TX 235 48 M 5 45-49 37:49.6 12:12/M
48 Haily Yanez Temple 186 24 F 1 20-24 37:50.3 12:12/M
49 Mike Stokke Killeen 164 68 M 1 65-69 38:15.1 12:20/M
50 Allison Smith Belton 109 37 F 6 35-39 38:16.9 12:21/M
51 Tanya Hernandez Killeen 149 34 F 2 30-34 38:19.1 12:22/M
52 Michael Ebers Belton 159 48 M 6 45-49 38:25.5 12:24/M
53 Sherlyn Sun Killeen 212 26 F 2 25-29 38:29.6 12:25/M
54 Sonia Nava Fort Hood 223 24 F 2 20-24 38:31.3 12:25/M
55 Gordon Shadwick Killeen 123 9 M 4 1-11 38:41.2 12:29/M
56 Kristi Miller Belton 117 44 F 2 40-44 38:57.2 12:34/M
57 Dustin Wilson Killeen 200 9 M 5 1-11 38:58.9 12:34/M
58 Geraldo Rivera Copperas Cove 112 31 M 5 30-34 39:05.8 12:36/M
59 Alisha Cotner Copperas Cove 142 32 F 3 30-34 39:13.2 12:39/M
60 Irma Saucedo Bryan TX 247 48 F 3 45-49 39:16.0 12:40/M
61 Shelly Rickel Hico 127 42 F 3 40-44 39:17.3 12:40/M
62 Barbara Buckles Temple 208 59 F 1 55-59 39:35.5 12:46/M
63 Lucy Ploeckelmann Fort Hood 148 54 F 1 50-54 39:38.4 12:47/M
64 Susan Martin Belton 205 38 F 7 35-39 39:42.4 12:48/M
65 Karen Oliver Troy 100 53 F 2 50-54 39:50.6 12:51/M
66 Ricardo Rodriguez Temple TX 236 69 M 2 65-69 40:07.1 12:56/M
67 Brittni Terry Kempner 107 29 F 3 25-29 40:53.4 13:11/M
68 Alexis Lampley Killeen 147 15 F 2 12-15 41:37.7 13:25/M
69 Dennis Alston Calvert 153 73 M 1 70-99 41:42.7 13:27/M
70 Michael Lampley Killeen 146 35 M 6 35-39 41:43.2 13:27/M
71 Julio Llompart Killeen 169 13 M 6 12-15 41:46.1 13:28/M
72 Kayla Reavis Killeen 196 27 F 4 25-29 42:00.2 13:33/M
73 Joshua Cribb Temple TX 243 12 M 7 12-15 42:09.2 13:36/M
74 Jen Warren Killeen 125 45 F 4 45-49 42:14.0 13:37/M
75 Windee Skrabanek Temple 207 38 F 8 35-39 42:43.0 13:47/M
76 Lauri Kvalevog Killeen 104 48 F 5 45-49 42:46.3 13:48/M
77 Miranda Gillenwater Belton 140 33 F 4 30-34 43:39.6 14:05/M
78 Jennifer Schuman Gatesville 106 27 F 5 25-29 44:29.1 14:21/M
79 Pamela Campos Killeen 168 35 F 9 35-39 46:29.8 15:00/M
80 Timothy Shadwick Killeen 124 7 M 6 1-11 47:13.6 15:14/M
81 Andrea Bazer Killeen 202 35 F 10 35-39 47:51.5 15:26/M
82 Alice Clement Killeen TX 232 33 F 5 30-34 47:59.2 15:29/M
83 Martha Perez Killeen TX 240 41 F 4 40-44 48:13.4 15:33/M
84 Kirsten Vandyke Temple 144 26 F 6 25-29 49:42.6 16:02/M
85 Conniesue Gladwell Killeen 157 49 F 6 45-49 49:55.8 16:06/M
86 Melissa Wilson Killeen 201 27 F 7 25-29 50:04.3 16:09/M
87 Cindy Cole Belton 120 55 F 2 55-59 50:15.3 16:13/M
88 Kristie Yonker Killeen 119 44 F 5 40-44 50:23.6 16:15/M
89 Yesenia Galvan Killeen 154 39 F 11 35-39 50:46.2 16:23/M
90 Daniel Cantrell Nolanville 152 53 M 2 50-54 50:46.4 16:23/M
91 Chad Ruff Belton 181 40 M 4 40-44 51:23.9 16:35/M
92 Blair Lewis Killeen 195 14 F 3 12-15 51:24.4 16:35/M
93 Andrea Ruff Belton 182 36 F 12 35-39 51:24.5 16:35/M
94 Sylvia Chipkin Killeen 160 38 F 13 35-39 51:27.2 16:36/M
95 Paige Carrasquillo Harker Heights 126 29 F 8 25-29 51:29.7 16:36/M
96 Angela Fuller Belton 185 50 F 3 50-54 51:41.0 16:40/M
97 Paul Stokke Harker Heights 206 68 M 3 65-69 51:57.5 16:45/M
98 Renee Larson Killeen 101 47 F 7 45-49 52:03.3 16:47/M
99 Anna Sampson Copperas Cove 103 54 F 4 50-54 52:51.8 17:03/M
100 Rosemary Stampley Belton 220 71 F 1 70-99 53:39.0 17:18/M
 
Place Name City Bib No Age Gender Age Group Total Time Pace
101 Sarah Phillips Killeen 155 33 F 6 30-34 53:49.5 17:22/M
102 Marty Gober Belton 161 53 F 5 50-54 54:06.0 17:27/M
103 Rosalinda Vasquez-Turner Belton 162 52 F 6 50-54 54:10.8 17:28/M
104 Wilson Everett Belton 228 20 F 3 20-24 56:17.4 18:09/M
105 Lisa Everett Belton 180 48 F 8 45-49 56:17.4 18:09/M
106 Sheri Welch Copperas Cove 130 41 F 6 40-44 57:01.1 18:24/M
107 Vannisabel Stalcup Copperas Cove TX 575 30 F 7 30-34 57:03.4 18:24/M
108 Sundai Anderson Killeen 193 30 F 8 30-34 57:03.9 18:24/M
109 Lila Kirkpatrick Killeen 132 40 F 7 40-44 57:10.0 18:26/M
110 Brenda Smith Lampasas 163 62 F 2 60-64 57:23.5 18:31/M
111 Mj Rorick Killeen 225 41 F 8 40-44 57:39.4 18:36/M
112 Miranda Fuller Belton TX 230 20 F 4 20-24 58:29.6 18:52/M
113 Tammi Mitchum Belton 213 46 F 9 45-49 58:31.2 18:53/M
114 Marlee Jackson Belton 214 21 F 5 20-24 58:31.5 18:53/M
115 Kaylee Welch Copperas Cove 131 16 F 1 16-19 58:34.4 18:54/M
116 Sue Mears Guys Mills 134 51 F 7 50-54 1:03:24.6 20:27/M
117 Karina Cavazos-Buxton Troy 183 41 F 9 40-44 1:03:24.9 20:27/M
118 Sheila Cook Killeen 118 49 F 10 45-49 1:03:33.8 20:30/M
119 Jennifer Shadwick Killeen 121 35 F 14 35-39 1:04:20.2 20:45/M
120 Jessica Cobb Killeen 150 33 F 9 30-34 1:05:55.4 21:16/M
121 Nicole Sherwood Belton 145 29 F 9 25-29 1:06:32.5 21:28/M
122 Deanna Ivy Belton 136 35 F 15 35-39 1:06:32.9 21:28/M
123 Sarah Cribb Temple TX 242 8 F 1 1-11 1:07:12.3 21:41/M
124 Christie Torres Temple TX 241 40 F 10 40-44 1:07:25.7 21:45/M
125 Olivia Crim Belton TX 244 13 F 4 12-15 1:10:44.2 22:49/M
126 Dindy Brown Heidenheimer TX 245 12 F 5 12-15 1:10:45.2 22:49/M
127 Charles Rich Belton 221 57 M 2 55-59 1:13:42.7 23:46/M
128 Almana Oaks Belton TX 239 47 F 11 45-49 1:18:15.9 25:15/M
129 Tara Smith Belton 226 32 F 10 30-34 1:18:16.3 25:15/M
130 Mark Wolfenberger Belton 227 25 M 2 25-29 1:18:17.5 25:15/M